sensor_id;sensor_type;location;lat;lon;timestamp;P1;durP1;ratioP1;P2;durP2;ratioP2
17636;SDS011;8937;51.236;6.794;2023-02-11T00:04:10;10.77;;;7.30;;
17636;SDS011;8937;51.236;6.794;2023-02-11T00:12:32;12.90;;;7.97;;
17636;SDS011;8937;51.236;6.794;2023-02-11T00:20:55;11.77;;;7.77;;
17636;SDS011;8937;51.236;6.794;2023-02-11T00:29:18;9.77;;;7.00;;
17636;SDS011;8937;51.236;6.794;2023-02-11T00:37:39;10.90;;;6.83;;
17636;SDS011;8937;51.236;6.794;2023-02-11T00:46:02;12.23;;;8.10;;
17636;SDS011;8937;51.236;6.794;2023-02-11T00:54:24;15.70;;;10.80;;
17636;SDS011;8937;51.236;6.794;2023-02-11T01:02:47;15.63;;;10.37;;
17636;SDS011;8937;51.236;6.794;2023-02-11T01:11:10;15.57;;;8.87;;
17636;SDS011;8937;51.236;6.794;2023-02-11T01:19:33;13.50;;;8.90;;
17636;SDS011;8937;51.236;6.794;2023-02-11T01:27:56;13.83;;;8.77;;
17636;SDS011;8937;51.236;6.794;2023-02-11T01:36:19;14.20;;;8.90;;
17636;SDS011;8937;51.236;6.794;2023-02-11T01:44:40;13.10;;;8.20;;
17636;SDS011;8937;51.236;6.794;2023-02-11T01:53:03;14.00;;;8.43;;
17636;SDS011;8937;51.236;6.794;2023-02-11T02:01:38;12.50;;;8.50;;
17636;SDS011;8937;51.236;6.794;2023-02-11T02:10:02;15.50;;;8.27;;
17636;SDS011;8937;51.236;6.794;2023-02-11T02:18:28;12.37;;;7.97;;
17636;SDS011;8937;51.236;6.794;2023-02-11T02:27:01;11.53;;;7.03;;
17636;SDS011;8937;51.236;6.794;2023-02-11T02:35:28;12.37;;;7.30;;
17636;SDS011;8937;51.236;6.794;2023-02-11T02:43:50;10.07;;;6.20;;
17636;SDS011;8937;51.236;6.794;2023-02-11T02:52:19;10.27;;;6.63;;
17636;SDS011;8937;51.236;6.794;2023-02-11T03:00:45;11.53;;;7.23;;
17636;SDS011;8937;51.236;6.794;2023-02-11T03:09:14;10.20;;;6.73;;
17636;SDS011;8937;51.236;6.794;2023-02-11T03:17:36;10.77;;;6.23;;
17636;SDS011;8937;51.236;6.794;2023-02-11T03:26:01;9.70;;;6.83;;
17636;SDS011;8937;51.236;6.794;2023-02-11T03:34:26;9.80;;;6.37;;
17636;SDS011;8937;51.236;6.794;2023-02-11T03:42:51;11.17;;;6.87;;
17636;SDS011;8937;51.236;6.794;2023-02-11T03:51:14;11.03;;;7.07;;
17636;SDS011;8937;51.236;6.794;2023-02-11T03:59:50;10.40;;;6.50;;
17636;SDS011;8937;51.236;6.794;2023-02-11T04:08:12;8.87;;;6.33;;
17636;SDS011;8937;51.236;6.794;2023-02-11T04:16:34;11.87;;;6.63;;
17636;SDS011;8937;51.236;6.794;2023-02-11T04:24:56;10.83;;;6.33;;
17636;SDS011;8937;51.236;6.794;2023-02-11T04:33:19;11.37;;;6.73;;
17636;SDS011;8937;51.236;6.794;2023-02-11T04:41:40;11.50;;;6.60;;
17636;SDS011;8937;51.236;6.794;2023-02-11T04:50:03;10.83;;;6.50;;
17636;SDS011;8937;51.236;6.794;2023-02-11T04:58:25;12.33;;;6.27;;
17636;SDS011;8937;51.236;6.794;2023-02-11T05:06:47;11.83;;;6.30;;
17636;SDS011;8937;51.236;6.794;2023-02-11T05:15:09;10.03;;;6.33;;
17636;SDS011;8937;51.236;6.794;2023-02-11T05:23:32;13.27;;;7.10;;
17636;SDS011;8937;51.236;6.794;2023-02-11T05:31:54;13.47;;;6.63;;
17636;SDS011;8937;51.236;6.794;2023-02-11T05:40:17;12.87;;;6.93;;
17636;SDS011;8937;51.236;6.794;2023-02-11T05:48:38;11.83;;;6.07;;
17636;SDS011;8937;51.236;6.794;2023-02-11T05:57:01;11.10;;;6.43;;
17636;SDS011;8937;51.236;6.794;2023-02-11T06:05:22;14.00;;;6.67;;
17636;SDS011;8937;51.236;6.794;2023-02-11T06:13:45;10.70;;;6.63;;
17636;SDS011;8937;51.236;6.794;2023-02-11T06:22:06;10.93;;;6.40;;
17636;SDS011;8937;51.236;6.794;2023-02-11T06:30:29;11.50;;;6.77;;
17636;SDS011;8937;51.236;6.794;2023-02-11T06:38:50;11.53;;;6.83;;
17636;SDS011;8937;51.236;6.794;2023-02-11T06:47:13;13.90;;;7.23;;
17636;SDS011;8937;51.236;6.794;2023-02-11T06:55:35;12.27;;;6.27;;
17636;SDS011;8937;51.236;6.794;2023-02-11T07:03:57;13.80;;;6.93;;
17636;SDS011;8937;51.236;6.794;2023-02-11T07:12:19;10.03;;;6.23;;
17636;SDS011;8937;51.236;6.794;2023-02-11T07:20:41;10.67;;;6.80;;
17636;SDS011;8937;51.236;6.794;2023-02-11T07:29:03;11.63;;;6.50;;
17636;SDS011;8937;51.236;6.794;2023-02-11T07:37:25;17.17;;;6.93;;
17636;SDS011;8937;51.236;6.794;2023-02-11T07:45:47;18.07;;;7.67;;
17636;SDS011;8937;51.236;6.794;2023-02-11T07:54:10;16.43;;;7.57;;
17636;SDS011;8937;51.236;6.794;2023-02-11T08:02:31;14.23;;;7.13;;
17636;SDS011;8937;51.236;6.794;2023-02-11T08:10:54;11.83;;;7.13;;
17636;SDS011;8937;51.236;6.794;2023-02-11T08:19:16;12.57;;;7.03;;
17636;SDS011;8937;51.236;6.794;2023-02-11T08:27:38;16.60;;;7.40;;
17636;SDS011;8937;51.236;6.794;2023-02-11T08:36:00;12.87;;;7.70;;
17636;SDS011;8937;51.236;6.794;2023-02-11T08:44:24;15.37;;;7.50;;
17636;SDS011;8937;51.236;6.794;2023-02-11T08:52:46;18.63;;;7.90;;
17636;SDS011;8937;51.236;6.794;2023-02-11T09:01:09;14.07;;;8.03;;
17636;SDS011;8937;51.236;6.794;2023-02-11T09:09:32;19.77;;;8.07;;
17636;SDS011;8937;51.236;6.794;2023-02-11T09:17:57;14.23;;;7.07;;
17636;SDS011;8937;51.236;6.794;2023-02-11T09:26:19;13.90;;;7.57;;
17636;SDS011;8937;51.236;6.794;2023-02-11T09:34:42;17.17;;;8.10;;
17636;SDS011;8937;51.236;6.794;2023-02-11T09:43:04;16.13;;;8.37;;
17636;SDS011;8937;51.236;6.794;2023-02-11T09:51:32;20.10;;;9.40;;
17636;SDS011;8937;51.236;6.794;2023-02-11T09:59:55;14.63;;;8.80;;
17636;SDS011;8937;51.236;6.794;2023-02-11T10:08:19;18.70;;;9.47;;
17636;SDS011;8937;51.236;6.794;2023-02-11T10:16:47;16.10;;;9.00;;
17636;SDS011;8937;51.236;6.794;2023-02-11T10:25:18;16.47;;;9.50;;
17636;SDS011;8937;51.236;6.794;2023-02-11T10:33:41;16.37;;;9.20;;
17636;SDS011;8937;51.236;6.794;2023-02-11T10:42:06;19.00;;;10.00;;
17636;SDS011;8937;51.236;6.794;2023-02-11T10:50:30;24.80;;;10.80;;
17636;SDS011;8937;51.236;6.794;2023-02-11T10:59:00;23.80;;;11.30;;
17636;SDS011;8937;51.236;6.794;2023-02-11T11:07:22;20.07;;;9.60;;
17636;SDS011;8937;51.236;6.794;2023-02-11T11:15:46;22.97;;;10.67;;
17636;SDS011;8937;51.236;6.794;2023-02-11T11:24:27;25.37;;;11.10;;
17636;SDS011;8937;51.236;6.794;2023-02-11T11:32:51;22.83;;;10.70;;
17636;SDS011;8937;51.236;6.794;2023-02-11T11:41:13;19.30;;;11.00;;
17636;SDS011;8937;51.236;6.794;2023-02-11T11:49:38;25.47;;;11.30;;
17636;SDS011;8937;51.236;6.794;2023-02-11T11:57:59;21.33;;;10.53;;
17636;SDS011;8937;51.236;6.794;2023-02-11T12:06:26;24.20;;;10.70;;
17636;SDS011;8937;51.236;6.794;2023-02-11T12:14:52;20.17;;;10.90;;
17636;SDS011;8937;51.236;6.794;2023-02-11T12:32:03;21.83;;;10.30;;
17636;SDS011;8937;51.236;6.794;2023-02-11T12:40:30;23.40;;;11.70;;
17636;SDS011;8937;51.236;6.794;2023-02-11T12:48:59;26.60;;;12.23;;
17636;SDS011;8937;51.236;6.794;2023-02-11T12:57:25;24.00;;;11.70;;
17636;SDS011;8937;51.236;6.794;2023-02-11T13:05:49;21.70;;;11.43;;
17636;SDS011;8937;51.236;6.794;2023-02-11T13:14:14;24.23;;;11.57;;
17636;SDS011;8937;51.236;6.794;2023-02-11T13:22:38;21.07;;;10.87;;
17636;SDS011;8937;51.236;6.794;2023-02-11T13:31:01;22.37;;;11.13;;
17636;SDS011;8937;51.236;6.794;2023-02-11T13:39:27;18.60;;;11.00;;
17636;SDS011;8937;51.236;6.794;2023-02-11T13:47:49;20.30;;;11.07;;
17636;SDS011;8937;51.236;6.794;2023-02-11T13:56:26;17.80;;;10.37;;
17636;SDS011;8937;51.236;6.794;2023-02-11T14:05:01;18.60;;;11.17;;
17636;SDS011;8937;51.236;6.794;2023-02-11T14:22:22;19.97;;;10.40;;
17636;SDS011;8937;51.236;6.794;2023-02-11T14:30:46;16.30;;;10.63;;
17636;SDS011;8937;51.236;6.794;2023-02-11T14:39:16;21.20;;;10.90;;
17636;SDS011;8937;51.236;6.794;2023-02-11T14:47:39;18.37;;;10.50;;
17636;SDS011;8937;51.236;6.794;2023-02-11T14:56:04;22.80;;;10.83;;
17636;SDS011;8937;51.236;6.794;2023-02-11T15:04:36;16.70;;;9.73;;
17636;SDS011;8937;51.236;6.794;2023-02-11T15:13:02;15.70;;;9.83;;
17636;SDS011;8937;51.236;6.794;2023-02-11T15:21:25;15.87;;;9.93;;
17636;SDS011;8937;51.236;6.794;2023-02-11T15:29:50;19.40;;;10.47;;
17636;SDS011;8937;51.236;6.794;2023-02-11T15:38:11;20.73;;;11.47;;
17636;SDS011;8937;51.236;6.794;2023-02-11T15:46:35;19.40;;;10.40;;
17636;SDS011;8937;51.236;6.794;2023-02-11T15:54:58;23.83;;;12.90;;
17636;SDS011;8937;51.236;6.794;2023-02-11T16:03:22;22.77;;;11.77;;
17636;SDS011;8937;51.236;6.794;2023-02-11T16:11:52;20.70;;;11.17;;
17636;SDS011;8937;51.236;6.794;2023-02-11T16:28:40;18.70;;;10.97;;
17636;SDS011;8937;51.236;6.794;2023-02-11T16:37:02;23.70;;;11.47;;
17636;SDS011;8937;51.236;6.794;2023-02-11T16:45:25;21.73;;;11.27;;
17636;SDS011;8937;51.236;6.794;2023-02-11T16:53:46;20.43;;;11.17;;
17636;SDS011;8937;51.236;6.794;2023-02-11T17:02:10;24.63;;;11.83;;
17636;SDS011;8937;51.236;6.794;2023-02-11T17:10:34;22.63;;;11.60;;
17636;SDS011;8937;51.236;6.794;2023-02-11T17:18:58;25.17;;;13.07;;
17636;SDS011;8937;51.236;6.794;2023-02-11T17:27:20;26.30;;;12.87;;
17636;SDS011;8937;51.236;6.794;2023-02-11T17:35:43;20.60;;;12.27;;
17636;SDS011;8937;51.236;6.794;2023-02-11T17:44:04;24.87;;;13.30;;
17636;SDS011;8937;51.236;6.794;2023-02-11T17:52:27;24.77;;;12.57;;
17636;SDS011;8937;51.236;6.794;2023-02-11T18:00:49;28.50;;;13.27;;
17636;SDS011;8937;51.236;6.794;2023-02-11T18:09:12;28.00;;;13.90;;
17636;SDS011;8937;51.236;6.794;2023-02-11T18:17:33;25.20;;;13.67;;
17636;SDS011;8937;51.236;6.794;2023-02-11T18:25:56;22.87;;;12.60;;
17636;SDS011;8937;51.236;6.794;2023-02-11T18:34:18;26.07;;;12.77;;
17636;SDS011;8937;51.236;6.794;2023-02-11T18:42:40;24.47;;;13.80;;
17636;SDS011;8937;51.236;6.794;2023-02-11T18:51:06;26.50;;;13.50;;
17636;SDS011;8937;51.236;6.794;2023-02-11T18:59:29;27.50;;;13.10;;
17636;SDS011;8937;51.236;6.794;2023-02-11T19:07:50;24.00;;;13.30;;
17636;SDS011;8937;51.236;6.794;2023-02-11T19:16:13;26.07;;;13.87;;
17636;SDS011;8937;51.236;6.794;2023-02-11T19:24:36;25.43;;;13.00;;
17636;SDS011;8937;51.236;6.794;2023-02-11T19:33:00;26.93;;;14.37;;
17636;SDS011;8937;51.236;6.794;2023-02-11T19:41:21;22.97;;;12.50;;
17636;SDS011;8937;51.236;6.794;2023-02-11T19:49:44;25.20;;;12.50;;
17636;SDS011;8937;51.236;6.794;2023-02-11T19:58:05;21.30;;;12.17;;
17636;SDS011;8937;51.236;6.794;2023-02-11T20:06:28;26.83;;;12.63;;
17636;SDS011;8937;51.236;6.794;2023-02-11T20:14:50;24.33;;;13.10;;
17636;SDS011;8937;51.236;6.794;2023-02-11T20:23:13;22.77;;;12.87;;
17636;SDS011;8937;51.236;6.794;2023-02-11T20:31:34;23.00;;;13.00;;
17636;SDS011;8937;51.236;6.794;2023-02-11T20:39:57;22.23;;;11.80;;
17636;SDS011;8937;51.236;6.794;2023-02-11T20:48:18;26.70;;;13.27;;
17636;SDS011;8937;51.236;6.794;2023-02-11T20:56:41;23.57;;;12.90;;
17636;SDS011;8937;51.236;6.794;2023-02-11T21:05:03;24.77;;;12.83;;
17636;SDS011;8937;51.236;6.794;2023-02-11T21:13:26;21.97;;;12.90;;
17636;SDS011;8937;51.236;6.794;2023-02-11T21:21:47;24.87;;;13.03;;
17636;SDS011;8937;51.236;6.794;2023-02-11T21:30:11;24.80;;;13.37;;
17636;SDS011;8937;51.236;6.794;2023-02-11T21:38:33;26.57;;;16.17;;
17636;SDS011;8937;51.236;6.794;2023-02-11T21:46:56;26.37;;;13.77;;
17636;SDS011;8937;51.236;6.794;2023-02-11T21:55:18;21.53;;;13.13;;
17636;SDS011;8937;51.236;6.794;2023-02-11T22:03:42;23.80;;;13.33;;
17636;SDS011;8937;51.236;6.794;2023-02-11T22:12:04;19.23;;;12.33;;
17636;SDS011;8937;51.236;6.794;2023-02-11T22:20:28;24.60;;;13.50;;
17636;SDS011;8937;51.236;6.794;2023-02-11T22:28:50;29.77;;;15.53;;
17636;SDS011;8937;51.236;6.794;2023-02-11T22:37:14;26.43;;;14.50;;
17636;SDS011;8937;51.236;6.794;2023-02-11T22:45:35;21.93;;;12.53;;
17636;SDS011;8937;51.236;6.794;2023-02-11T22:53:58;25.00;;;13.00;;
17636;SDS011;8937;51.236;6.794;2023-02-11T23:02:20;26.33;;;13.93;;
17636;SDS011;8937;51.236;6.794;2023-02-11T23:10:43;22.97;;;13.10;;
17636;SDS011;8937;51.236;6.794;2023-02-11T23:19:05;24.87;;;14.07;;
17636;SDS011;8937;51.236;6.794;2023-02-11T23:27:28;22.23;;;13.23;;
17636;SDS011;8937;51.236;6.794;2023-02-11T23:35:49;24.37;;;12.70;;
17636;SDS011;8937;51.236;6.794;2023-02-11T23:44:12;23.87;;;12.73;;
17636;SDS011;8937;51.236;6.794;2023-02-11T23:52:34;22.23;;;12.10;;
